Time;durP1;ratioP1;P1;durP2;ratioP2;P2;SDS_P1;SDS_P2;PMS_P1;PMS_P2;Temp;Humidity;BMP_temperature;BMP_pressure;BME280_temperature;BME280_humidity;BME280_pressure;Samples;Min_cycle;Max_cycle;Signal;HPM_P1;HPM_P2
2023/08/14 00:01:03;;;;;;;39.28;8.55;;;;;;;19.91;100.00;101319.41;5117287;28;20027;-69
2023/08/14 00:03:28;;;;;;;33.65;8.70;;;;;;;19.89;100.00;101321.56;5101635;28;20034;-69
2023/08/14 00:05:54;;;;;;;34.40;9.23;;;;;;;19.83;100.00;101313.53;5119820;28;20095;-70
2023/08/14 00:08:19;;;;;;;30.98;8.38;;;;;;;19.85;100.00;101322.31;5118539;28;20413;-77
2023/08/14 00:10:45;;;;;;;38.50;9.52;;;;;;;19.84;100.00;101324.22;5118479;28;20035;-69
2023/08/14 00:13:12;;;;;;;33.05;8.90;;;;;;;19.83;100.00;101329.91;5119958;28;20087;-72
2023/08/14 00:15:37;;;;;;;27.90;8.75;;;;;;;19.75;100.00;101324.88;5118282;28;20023;-70
2023/08/14 00:18:03;;;;;;;35.45;9.50;;;;;;;19.84;100.00;101337.06;5101059;28;20051;-73
2023/08/14 00:20:29;;;;;;;28.00;9.68;;;;;;;19.79;100.00;101326.03;5118117;28;20500;-70
2023/08/14 00:22:54;;;;;;;33.00;8.68;;;;;;;19.81;100.00;101329.38;5101302;28;20114;-69
2023/08/14 00:25:21;;;;;;;39.47;9.30;;;;;;;19.81;100.00;101332.09;5118359;28;20126;-68
2023/08/14 00:27:47;;;;;;;38.85;9.57;;;;;;;19.78;100.00;101327.94;5119291;28;20405;-67
2023/08/14 00:30:12;;;;;;;29.27;8.82;;;;;;;19.75;100.00;101325.72;5121724;28;20032;-69
2023/08/14 00:32:37;;;;;;;41.15;10.10;;;;;;;19.76;100.00;101323.81;5122330;28;20398;-70
2023/08/14 00:35:03;;;;;;;33.78;9.70;;;;;;;19.73;100.00;101327.03;5119757;28;20106;-68
2023/08/14 00:37:45;;;;;;;34.92;9.77;;;;;;;19.73;100.00;101325.13;5118952;28;20532;-69
2023/08/14 00:40:14;;;;;;;46.72;10.98;;;;;;;19.69;100.00;101316.59;5120237;28;20034;-70
2023/08/14 00:42:42;;;;;;;39.85;10.60;;;;;;;19.60;100.00;101318.06;5118644;28;20076;-69
2023/08/14 00:45:09;;;;;;;40.55;11.35;;;;;;;19.66;100.00;101328.00;5118615;28;20038;-68
2023/08/14 00:47:36;;;;;;;41.17;11.57;;;;;;;19.65;100.00;101328.28;5102952;28;20054;-72
2023/08/14 00:50:06;;;;;;;31.60;11.07;;;;;;;19.64;100.00;101330.19;5125718;28;20052;-75
2023/08/14 00:52:35;;;;;;;45.00;12.35;;;;;;;19.63;100.00;101341.28;5125805;28;20024;-73
2023/08/14 00:55:08;;;;;;;39.60;11.82;;;;;;;19.63;100.00;101338.56;5117500;28;20023;-69
2023/08/14 00:57:34;;;;;;;42.97;12.05;;;;;;;19.59;100.00;101337.41;5115638;28;20031;-69
2023/08/14 01:00:03;;;;;;;36.63;11.77;;;;;;;19.60;100.00;101339.91;5117273;28;20051;-72
2023/08/14 01:02:29;;;;;;;40.17;11.95;;;;;;;19.53;100.00;101332.94;5115869;28;20444;-69
2023/08/14 01:04:54;;;;;;;38.55;11.90;;;;;;;19.59;100.00;101340.13;5114669;28;20027;-69
2023/08/14 01:07:20;;;;;;;37.65;11.70;;;;;;;19.50;100.00;101331.50;5101241;28;20545;-70
2023/08/14 01:09:47;;;;;;;43.15;11.95;;;;;;;19.62;100.00;101345.09;5117952;28;20105;-70
2023/08/14 01:12:31;;;;;;;33.33;10.73;;;;;;;19.65;100.00;101342.75;5119065;28;20584;-68
2023/08/14 01:15:03;;;;;;;38.30;10.47;;;;;;;19.61;100.00;101336.09;5122180;28;20455;-69
2023/08/14 01:17:34;;;;;;;40.10;11.43;;;;;;;19.66;100.00;101338.94;5122808;28;20031;-75
2023/08/14 01:20:04;;;;;;;36.28;9.57;;;;;;;19.69;100.00;101343.91;5123143;28;20022;-70
2023/08/14 01:22:42;;;;;;;33.53;9.45;;;;;;;19.79;100.00;101351.44;5104909;28;20091;-69
2023/08/14 01:25:33;;;;;;;32.50;8.70;;;;;;;19.80;100.00;101346.81;5123350;28;20023;-68
2023/08/14 01:28:01;;;;;;;25.40;8.48;;;;;;;19.82;100.00;101352.84;5121767;28;20478;-68
2023/08/14 01:30:27;;;;;;;20.83;8.05;;;;;;;19.82;100.00;101347.41;5122958;28;20027;-68
2023/08/14 01:32:53;;;;;;;22.67;8.23;;;;;;;19.86;100.00;101345.81;5118952;28;20031;-69
2023/08/14 01:35:22;;;;;;;25.55;8.15;;;;;;;19.85;100.00;101339.53;5121756;28;20031;-70
2023/08/14 01:38:16;;;;;;;21.67;7.00;;;;;;;19.83;100.00;101349.84;5114906;28;20569;-68
2023/08/14 01:41:05;;;;;;;27.73;7.97;;;;;;;19.91;100.00;101348.66;5098931;27;20078;-68
2023/08/14 01:43:34;;;;;;;21.48;6.38;;;;;;;19.89;100.00;101342.59;5079293;28;20035;-68
2023/08/14 01:46:00;;;;;;;21.33;6.65;;;;;;;19.86;100.00;101349.38;5091995;28;20028;-68
2023/08/14 01:48:27;;;;;;;20.52;6.53;;;;;;;19.83;100.00;101349.03;5094282;28;20111;-68
2023/08/14 01:50:54;;;;;;;26.13;6.85;;;;;;;19.79;100.00;101353.34;5074055;28;20056;-68
2023/08/14 01:53:19;;;;;;;20.58;6.85;;;;;;;19.75;100.00;101341.28;5072873;28;20044;-68
2023/08/14 01:55:45;;;;;;;27.30;6.72;;;;;;;19.71;100.00;101347.22;5057661;28;20041;-69
2023/08/14 01:58:11;;;;;;;17.60;5.28;;;;;;;19.68;100.00;101353.19;5075268;28;20386;-68
2023/08/14 02:00:37;;;;;;;21.75;5.22;;;;;;;19.60;100.00;101345.38;5081378;28;20035;-68
2023/08/14 02:03:02;;;;;;;18.13;5.07;;;;;;;19.42;100.00;101337.38;5073862;28;20048;-68
2023/08/14 02:05:28;;;;;;;18.63;5.53;;;;;;;19.58;100.00;101342.03;5073989;28;20071;-68
2023/08/14 02:07:54;;;;;;;19.50;5.53;;;;;;;19.55;100.00;101350.72;5085194;28;20091;-71
2023/08/14 02:10:19;;;;;;;20.20;5.05;;;;;;;19.50;100.00;101331.50;5082863;28;20032;-73
2023/08/14 02:12:44;;;;;;;19.75;4.88;;;;;;;19.53;100.00;101333.75;5091436;28;20043;-69
2023/08/14 02:15:10;;;;;;;20.00;5.05;;;;;;;19.47;100.00;101337.50;5100518;28;20040;-70
2023/08/14 02:17:35;;;;;;;21.85;4.97;;;;;;;19.48;100.00;101348.16;5087248;28;20031;-68
2023/08/14 02:20:01;;;;;;;20.33;4.85;;;;;;;19.34;100.00;101318.69;5079555;28;20036;-68
2023/08/14 02:22:26;;;;;;;20.15;5.28;;;;;;;19.45;100.00;101342.34;5048914;28;20032;-68
2023/08/14 02:24:52;;;;;;;18.65;5.38;;;;;;;19.42;100.00;101349.13;5100778;28;20032;-68
2023/08/14 02:27:18;;;;;;;19.40;4.68;;;;;;;19.42;100.00;101353.75;5099242;28;20028;-68
2023/08/14 02:29:45;;;;;;;20.77;5.53;;;;;;;19.40;100.00;101353.16;5101602;28;20032;-69
2023/08/14 02:32:10;;;;;;;19.88;4.97;;;;;;;19.39;100.00;101351.50;5099524;28;20073;-67
2023/08/14 02:34:49;;;;;;;20.20;4.82;;;;;;;19.37;100.00;101345.47;5095605;28;20024;-67
2023/08/14 02:37:16;;;;;;;21.45;5.40;;;;;;;19.39;100.00;101348.78;5098081;28;20028;-69
2023/08/14 02:39:43;;;;;;;24.48;5.90;;;;;;;19.40;100.00;101350.44;5079862;28;20039;-68
2023/08/14 02:42:10;;;;;;;18.63;4.93;;;;;;;19.36;100.00;101347.38;5080499;28;20029;-69
2023/08/14 02:44:36;;;;;;;18.38;5.10;;;;;;;19.40;100.00;101355.88;5080638;28;20034;-69
2023/08/14 02:47:02;;;;;;;22.63;5.80;;;;;;;19.30;100.00;101331.16;5083621;28;20028;-68
2023/08/14 02:49:28;;;;;;;21.35;5.47;;;;;;;19.26;100.00;101317.16;5099288;28;20048;-69
2023/08/14 02:51:53;;;;;;;20.58;5.32;;;;;;;19.35;100.00;101337.53;5081095;28;20062;-68
2023/08/14 02:54:19;;;;;;;19.38;5.43;;;;;;;19.30;100.00;101333.88;5077790;28;20445;-68
2023/08/14 02:56:44;;;;;;;22.08;5.40;;;;;;;19.31;100.00;101338.28;5077882;28;20483;-68
2023/08/14 02:59:09;;;;;;;25.42;5.30;;;;;;;19.31;100.00;101346.47;5078065;28;20036;-68
2023/08/14 03:01:35;;;;;;;24.50;5.88;;;;;;;19.31;100.00;101338.28;5076412;28;20025;-67
2023/08/14 03:04:00;;;;;;;20.58;5.32;;;;;;;19.28;100.00;101342.31;5093166;28;20035;-68
2023/08/14 03:06:29;;;;;;;23.10;6.25;;;;;;;19.27;100.00;101343.41;5077291;28;20043;-68
2023/08/14 03:08:55;;;;;;;19.75;5.75;;;;;;;19.24;100.00;101341.16;5077236;28;20048;-68
2023/08/14 03:11:20;;;;;;;18.88;6.47;;;;;;;19.22;100.00;101343.28;5091551;28;20056;-68
2023/08/14 03:13:46;;;;;;;23.02;6.32;;;;;;;19.18;100.00;101328.47;5077610;28;20029;-68
2023/08/14 03:16:11;;;;;;;17.25;5.95;;;;;;;19.26;100.00;101347.19;5071323;28;20028;-68
2023/08/14 03:18:37;;;;;;;25.27;7.03;;;;;;;19.21;100.00;101342.47;5076592;28;20340;-68
2023/08/14 03:21:02;;;;;;;26.50;6.60;;;;;;;19.23;100.00;101345.75;5056365;28;20099;-69
2023/08/14 03:23:28;;;;;;;23.95;5.88;;;;;;;19.23;100.00;101344.94;5077817;28;20032;-68
2023/08/14 03:25:53;;;;;;;23.08;6.63;;;;;;;19.20;100.00;101345.41;5077747;28;20390;-68
2023/08/14 03:28:18;;;;;;;27.92;6.82;;;;;;;19.11;100.00;101336.00;5078872;28;20032;-68
2023/08/14 03:30:44;;;;;;;32.00;6.75;;;;;;;19.16;100.00;101347.81;5075537;28;20413;-68
2023/08/14 03:33:09;;;;;;;24.88;6.97;;;;;;;19.16;100.00;101342.34;5060700;28;20025;-68
2023/08/14 03:35:35;;;;;;;26.45;7.15;;;;;;;19.14;100.00;101354.56;5082882;28;20062;-68
2023/08/14 03:38:01;;;;;;;31.98;6.85;;;;;;;19.14;100.00;101344.50;5098020;28;20024;-68
2023/08/14 03:40:27;;;;;;;21.63;6.55;;;;;;;19.12;100.00;101343.91;5080408;28;20039;-68
2023/08/14 03:42:52;;;;;;;22.55;6.22;;;;;;;19.12;100.00;101349.38;5099464;28;20032;-68
2023/08/14 03:45:18;;;;;;;25.15;6.85;;;;;;;19.12;100.00;101354.81;5084307;28;20054;-68
2023/08/14 03:47:43;;;;;;;22.77;6.70;;;;;;;19.10;100.00;101351.50;5076580;28;20090;-68
2023/08/14 03:50:09;;;;;;;26.40;6.88;;;;;;;19.11;100.00;101363.25;5080867;28;20053;-68
2023/08/14 03:52:35;;;;;;;27.98;7.18;;;;;;;19.10;100.00;101362.41;5076240;28;20024;-68
2023/08/14 03:55:01;;;;;;;20.73;6.05;;;;;;;19.10;100.00;101372.50;5076826;28;20070;-68
2023/08/14 03:57:26;;;;;;;22.70;6.82;;;;;;;19.08;100.00;101372.75;5076937;28;20063;-68
2023/08/14 03:59:51;;;;;;;28.98;6.93;;;;;;;19.12;100.00;101376.66;5092689;28;20032;-68
2023/08/14 04:02:17;;;;;;;31.40;6.95;;;;;;;19.12;100.00;101373.91;5095345;28;20051;-69
2023/08/14 04:04:42;;;;;;;24.75;7.38;;;;;;;19.10;100.00;101373.31;5094470;28;20028;-68
2023/08/14 04:07:08;;;;;;;25.48;6.93;;;;;;;19.10;100.00;101381.50;5092268;28;20044;-69
2023/08/14 04:09:33;;;;;;;29.33;7.22;;;;;;;19.13;100.00;101375.56;5092877;28;20032;-68
2023/08/14 04:12:01;;;;;;;27.23;7.32;;;;;;;19.22;100.00;101382.31;5079951;28;20035;-68
2023/08/14 04:14:26;;;;;;;22.02;6.53;;;;;;;19.32;100.00;101386.31;5097924;28;20144;-70
2023/08/14 04:16:54;;;;;;;24.42;7.25;;;;;;;19.51;100.00;101385.06;5097671;28;20024;-68
2023/08/14 04:19:19;;;;;;;28.05;7.32;;;;;;;19.90;100.00;101377.88;5098272;28;20123;-68
2023/08/14 04:21:45;;;;;;;26.88;7.07;;;;;;;20.28;100.00;101378.19;5099539;28;20075;-70
2023/08/14 04:24:11;;;;;;;24.65;7.13;;;;;;;19.93;100.00;101373.78;5099160;28;20491;-69
2023/08/14 04:26:37;;;;;;;28.67;7.25;;;;;;;19.78;100.00;101359.91;5099863;28;20482;-68
2023/08/14 04:29:06;;;;;;;22.15;6.55;;;;;;;19.88;100.00;101376.44;5099160;28;20467;-69
2023/08/14 04:31:38;;;;;;;22.88;6.63;;;;;;;19.78;100.00;101359.91;5098160;28;20039;-70
2023/08/14 04:34:05;;;;;;;27.65;7.28;;;;;;;19.88;100.00;101368.25;5098734;28;20028;-70
2023/08/14 04:36:32;;;;;;;25.50;6.88;;;;;;;19.87;100.00;101361.16;5099615;28;20058;-68
2023/08/14 04:38:57;;;;;;;29.42;7.00;;;;;;;19.91;100.00;101356.84;5098894;28;20467;-69
2023/08/14 04:41:23;;;;;;;24.00;6.97;;;;;;;19.93;100.00;101365.59;5097517;28;20043;-68
2023/08/14 04:43:49;;;;;;;22.10;6.32;;;;;;;19.92;100.00;101359.31;5090506;28;20039;-68
2023/08/14 04:46:30;;;;;;;22.95;5.90;;;;;;;19.98;100.00;101362.97;5098845;28;20027;-68
2023/08/14 04:48:56;;;;;;;29.33;6.43;;;;;;;20.03;100.00;101363.03;5103230;28;20043;-68
2023/08/14 04:51:21;;;;;;;21.77;6.05;;;;;;;20.08;100.00;101362.31;5105048;28;20031;-69
2023/08/14 04:53:47;;;;;;;24.67;5.68;;;;;;;20.00;100.00;101349.91;5100377;28;20026;-69
2023/08/14 04:56:12;;;;;;;22.75;5.72;;;;;;;20.15;100.00;101368.41;5098969;28;20040;-68
2023/08/14 04:58:37;;;;;;;23.88;5.90;;;;;;;20.12;100.00;101369.75;5099477;28;20031;-68
2023/08/14 05:01:03;;;;;;;26.23;5.70;;;;;;;20.03;100.00;101348.53;5103131;28;20072;-68
2023/08/14 05:03:28;;;;;;;21.25;5.70;;;;;;;20.11;100.00;101359.91;5108761;28;20482;-68
2023/08/14 05:05:54;;;;;;;25.05;5.45;;;;;;;20.23;100.00;101364.44;5104845;28;20474;-68
2023/08/14 05:08:19;;;;;;;17.55;4.93;;;;;;;20.30;100.00;101370.56;5107737;28;20509;-69
2023/08/14 05:10:49;;;;;;;14.98;5.22;;;;;;;20.38;100.00;101373.69;5099943;28;20088;-69
2023/08/14 05:13:15;;;;;;;26.58;5.40;;;;;;;20.42;100.00;101369.38;5099761;28;20024;-69
2023/08/14 05:15:40;;;;;;;21.95;4.90;;;;;;;20.53;100.00;101369.56;5079187;28;20046;-67
2023/08/14 05:18:06;;;;;;;14.45;5.03;;;;;;;20.64;100.00;101374.09;5094825;28;20455;-68
2023/08/14 05:20:34;;;;;;;21.92;5.10;;;;;;;20.74;100.00;101373.41;5087398;28;20550;-69
2023/08/14 05:22:59;;;;;;;23.20;5.47;;;;;;;20.73;100.00;101366.28;5095467;28;20498;-67
2023/08/14 05:25:25;;;;;;;23.90;5.50;;;;;;;20.80;100.00;101367.75;5074565;28;20033;-68
2023/08/14 05:27:50;;;;;;;19.92;5.40;;;;;;;20.84;100.00;101377.09;5080416;28;20039;-68
2023/08/14 05:30:15;;;;;;;23.00;5.35;;;;;;;20.85;100.00;101370.53;5094146;28;20040;-68
2023/08/14 05:32:41;;;;;;;23.95;5.00;;;;;;;20.77;100.00;101364.69;5095190;28;20128;-68
2023/08/14 05:35:07;;;;;;;19.92;5.35;;;;;;;20.90;100.00;101377.19;5062798;28;20554;-68
2023/08/14 05:37:32;;;;;;;17.80;5.00;;;;;;;20.90;100.00;101383.47;5083145;28;20028;-68
2023/08/14 05:39:58;;;;;;;16.27;5.10;;;;;;;20.83;100.00;101377.38;5101377;28;20028;-69
2023/08/14 05:42:23;;;;;;;22.33;5.03;;;;;;;20.88;100.00;101382.88;5100026;28;20024;-70
2023/08/14 05:44:48;;;;;;;18.45;5.10;;;;;;;20.98;100.00;101384.94;5101189;28;20024;-71
2023/08/14 05:47:14;;;;;;;21.42;4.78;;;;;;;20.98;100.00;101387.66;5081411;28;20056;-69
2023/08/14 05:49:39;;;;;;;21.48;5.22;;;;;;;20.98;100.00;101384.94;5099135;28;20063;-69
2023/08/14 05:52:05;;;;;;;18.48;4.75;;;;;;;20.89;100.00;101368.13;5098543;28;20028;-70
2023/08/14 05:54:30;;;;;;;19.13;4.57;;;;;;;21.00;100.00;101388.25;5101330;28;20048;-67
2023/08/14 05:56:55;;;;;;;23.45;5.25;;;;;;;20.99;100.00;101397.53;5097892;28;20494;-70
2023/08/14 05:59:21;;;;;;;17.92;4.80;;;;;;;20.96;100.00;101392.56;5096538;28;20036;-73
2023/08/14 06:01:48;;;;;;;22.73;4.68;;;;;;;20.95;100.00;101389.00;5100406;28;20494;-72
2023/08/14 06:04:13;;;;;;;18.70;5.00;;;;;;;21.01;100.00;101385.25;5101086;28;20022;-72
2023/08/14 06:06:38;;;;;;;16.60;4.57;;;;;;;21.08;100.00;101388.63;5108372;28;20113;-71
2023/08/14 06:09:04;;;;;;;16.10;4.93;;;;;;;21.10;100.00;101386.47;5099155;28;20078;-71
2023/08/14 06:11:30;;;;;;;19.75;5.00;;;;;;;21.19;100.00;101380.53;5098328;28;20032;-72
2023/08/14 06:13:55;;;;;;;19.30;4.65;;;;;;;21.28;100.00;101392.69;5092015;28;20032;-76
2023/08/14 06:16:20;;;;;;;18.15;4.15;;;;;;;21.25;100.00;101384.97;5079899;28;20143;-68
2023/08/14 06:18:46;;;;;;;17.42;4.32;;;;;;;21.31;100.00;101392.16;5089684;28;20118;-84
2023/08/14 06:21:11;;;;;;;21.77;4.97;;;;;;;21.34;100.00;101402.59;5075783;28;20028;-75
2023/08/14 06:23:37;;;;;;;16.95;5.05;;;;;;;21.34;100.00;101408.94;5091346;28;20085;-78
2023/08/14 06:26:02;;;;;;;15.35;4.75;;;;;;;21.31;100.00;101405.84;5088354;28;20032;-75
2023/08/14 06:28:28;;;;;;;20.63;5.00;;;;;;;21.34;100.00;101411.69;5074923;28;20028;-79
2023/08/14 06:30:53;;;;;;;15.18;4.95;;;;;;;21.25;100.00;101410.44;5106391;28;20036;-69
2023/08/14 06:33:18;;;;;;;16.05;4.82;;;;;;;21.23;100.00;101406.31;5104013;28;20024;-70
2023/08/14 06:35:44;;;;;;;15.15;4.65;;;;;;;21.22;100.00;101410.13;5106238;28;20042;-71
2023/08/14 06:38:09;;;;;;;20.73;5.50;;;;;;;21.28;100.00;101409.09;5098132;28;20032;-74
2023/08/14 06:40:34;;;;;;;12.80;4.97;;;;;;;21.30;100.00;101413.25;5097365;28;20062;-70
2023/08/14 06:43:02;;;;;;;19.27;4.97;;;;;;;21.37;100.00;101420.47;5075097;28;20032;-86
2023/08/14 06:45:28;;;;;;;14.00;4.97;;;;;;;21.27;100.00;101423.88;5074408;28;20054;-78
2023/08/14 06:47:53;;;;;;;17.67;5.15;;;;;;;21.21;100.00;101414.78;5084554;28;20032;-72
2023/08/14 06:50:19;;;;;;;16.60;4.80;;;;;;;21.17;100.00;101421.03;5082596;28;20056;-69
2023/08/14 06:52:46;;;;;;;14.13;5.20;;;;;;;21.29;100.00;101427.16;5076663;28;20538;-70
2023/08/14 06:55:11;;;;;;;15.73;5.75;;;;;;;21.28;100.00;101422.78;5074577;28;20035;-71
2023/08/14 06:57:37;;;;;;;17.58;5.85;;;;;;;21.43;100.00;101428.47;5086619;28;20032;-78
2023/08/14 07:00:08;;;;;;;18.15;5.40;;;;;;;21.52;100.00;101424.22;5095278;28;20032;-72
2023/08/14 07:02:34;;;;;;;17.40;5.50;;;;;;;21.58;100.00;101425.91;5090691;28;20032;-73
2023/08/14 07:04:59;;;;;;;18.73;4.80;;;;;;;21.64;100.00;101423.22;5097112;28;20054;-67
2023/08/14 07:07:24;;;;;;;17.52;5.03;;;;;;;21.74;100.00;101428.81;5095656;28;20028;-70
2023/08/14 07:09:50;;;;;;;19.63;4.90;;;;;;;21.75;100.00;101434.00;5080617;28;20085;-76
2023/08/14 07:12:15;;;;;;;16.52;4.60;;;;;;;21.75;100.00;101436.75;5090952;28;20099;-71
2023/08/14 07:14:41;;;;;;;14.65;5.00;;;;;;;21.77;100.00;101433.78;5077103;28;20097;-70
2023/08/14 07:17:06;;;;;;;17.00;4.60;;;;;;;21.79;100.00;101437.91;5073745;28;20047;-72
2023/08/14 07:19:31;;;;;;;16.33;4.80;;;;;;;21.72;100.00;101439.19;5087061;28;20050;-69
2023/08/14 07:21:57;;;;;;;16.00;4.60;;;;;;;21.67;100.00;101439.97;5083841;28;20518;-77
2023/08/14 07:24:22;;;;;;;12.18;4.78;;;;;;;21.72;100.00;101442.78;5092419;28;20118;-84
2023/08/14 07:26:48;;;;;;;13.35;4.57;;;;;;;21.70;100.00;101438.63;5093029;28;20394;-76
2023/08/14 07:29:13;;;;;;;19.40;4.03;;;;;;;21.84;100.00;101431.66;5093608;28;20451;-69
2023/08/14 07:31:39;;;;;;;21.30;4.53;;;;;;;21.91;100.00;101432.25;5094939;28;20039;-72
2023/08/14 07:34:04;;;;;;;15.23;4.35;;;;;;;21.99;100.00;101423.56;5095530;28;20375;-68
2023/08/14 07:36:29;;;;;;;17.75;4.30;;;;;;;22.19;100.00;101431.19;5076087;28;20106;-69
2023/08/14 07:38:55;;;;;;;18.00;4.75;;;;;;;22.31;100.00;101430.97;5092254;28;20024;-72
2023/08/14 07:41:20;;;;;;;16.90;4.22;;;;;;;22.36;100.00;101424.72;5093639;28;20194;-68
2023/08/14 07:43:46;;;;;;;11.90;4.05;;;;;;;22.42;100.00;101443.69;5093352;28;20056;-69
2023/08/14 07:46:11;;;;;;;11.23;3.38;;;;;;;22.33;100.00;101442.53;5093083;28;20044;-68
2023/08/14 07:48:37;;;;;;;15.25;3.80;;;;;;;22.30;100.00;101447.72;5093959;28;20460;-68
2023/08/14 07:51:02;;;;;;;11.88;3.80;;;;;;;22.30;100.00;101447.72;5093461;28;20109;-69
2023/08/14 07:53:28;;;;;;;11.70;3.20;;;;;;;22.23;100.00;101442.44;5102384;28;20441;-78
2023/08/14 07:55:54;;;;;;;12.48;3.47;;;;;;;22.17;100.00;101435.25;5099151;28;20032;-73
2023/08/14 07:58:20;;;;;;;9.23;3.00;;;;;;;22.15;100.00;101438.28;5094999;28;20328;-69
2023/08/14 08:00:45;;;;;;;8.90;2.78;;;;;;;22.30;100.00;101448.53;5095687;28;20032;-69
2023/08/14 08:03:11;;;;;;;13.52;3.25;;;;;;;22.29;100.00;101438.66;5095796;28;20066;-70
2023/08/14 08:05:37;;;;;;;9.82;2.65;;;;;;;22.36;100.00;101439.25;5097605;28;20395;-70
2023/08/14 08:08:02;;;;;;;6.22;2.67;;;;;;;22.40;100.00;101443.13;5094984;28;20491;-69
2023/08/14 08:10:28;;;;;;;8.90;2.85;;;;;;;22.30;100.00;101414.81;5095150;28;20036;-69
2023/08/14 08:12:54;;;;;;;11.65;2.92;;;;;;;22.47;100.00;101430.00;5078696;28;20441;-68
2023/08/14 08:15:19;;;;;;;10.93;3.15;;;;;;;22.66;100.00;101441.38;5095223;28;20028;-69
2023/08/14 08:17:45;;;;;;;9.13;2.13;;;;;;;22.83;100.00;101451.38;5095244;28;20039;-71
2023/08/14 08:20:11;;;;;;;8.20;2.33;;;;;;;22.88;100.00;101445.91;5079569;28;20032;-71
2023/08/14 08:22:37;;;;;;;11.65;3.17;;;;;;;23.12;100.00;101446.34;5094655;28;20035;-70
2023/08/14 08:25:03;;;;;;;11.25;2.65;;;;;;;23.23;100.00;101448.03;5095061;28;20031;-79
2023/08/14 08:27:29;;;;;;;9.40;2.50;;;;;;;23.28;100.00;101444.47;5077561;28;20685;-73
2023/08/14 08:29:54;;;;;;;7.63;2.25;;;;;;;23.33;100.00;101450.81;5094795;28;20031;-70
2023/08/14 08:32:20;;;;;;;9.80;2.67;;;;;;;23.38;100.00;101448.09;5099722;28;20040;-71
2023/08/14 08:34:45;;;;;;;12.40;2.78;;;;;;;23.48;100.00;101452.81;5082853;28;20043;-73
2023/08/14 08:37:11;;;;;;;10.52;2.50;;;;;;;23.59;100.00;101459.16;5100065;28;20036;-70
2023/08/14 08:39:36;;;;;;;9.85;2.45;;;;;;;23.69;100.00;101456.47;5100056;28;20027;-73
2023/08/14 08:42:05;;;;;;;6.65;2.22;;;;;;;23.71;98.87;101453.41;5080922;28;20453;-70
2023/08/14 08:44:32;;;;;;;7.95;2.25;;;;;;;23.78;98.00;101452.09;5098786;28;20024;-68
2023/08/14 08:47:02;;;;;;;13.15;2.28;;;;;;;23.75;97.18;101454.56;5082656;28;20569;-69
2023/08/14 08:49:28;;;;;;;9.40;2.45;;;;;;;23.55;96.54;101455.28;5097412;28;20654;-70
2023/08/14 08:51:54;;;;;;;8.82;2.20;;;;;;;23.52;96.73;101458.59;5095153;28;20023;-69
2023/08/14 08:54:19;;;;;;;7.85;2.38;;;;;;;23.48;96.29;101441.81;5094840;28;20089;-75
2023/08/14 08:56:45;;;;;;;10.27;2.25;;;;;;;23.59;96.41;101461.91;5093562;28;20023;-69
2023/08/14 08:59:11;;;;;;;8.30;2.45;;;;;;;23.61;96.55;101457.78;5095705;28;20063;-69
2023/08/14 09:01:38;;;;;;;8.77;2.90;;;;;;;23.71;96.48;101451.53;5099955;28;20028;-72
2023/08/14 09:04:04;;;;;;;9.57;3.00;;;;;;;23.79;96.73;101458.41;5096983;28;20016;-69
2023/08/14 09:06:29;;;;;;;12.05;2.40;;;;;;;23.86;96.16;101440.53;5095221;28;20031;-70
2023/08/14 09:08:55;;;;;;;11.18;3.50;;;;;;;24.02;95.66;101454.31;5096489;28;20039;-69
2023/08/14 09:11:21;;;;;;;11.35;2.95;;;;;;;23.96;95.59;101458.16;5094384;28;20039;-73
2023/08/14 09:13:47;;;;;;;12.55;3.40;;;;;;;23.97;95.46;101457.03;5093093;28;20487;-69
2023/08/14 09:16:16;;;;;;;7.80;2.75;;;;;;;24.20;94.40;101464.75;5095935;28;20028;-78
2023/08/14 09:18:45;;;;;;;8.55;2.97;;;;;;;24.55;93.31;101460.41;5096089;28;20039;-70
2023/08/14 09:21:11;;;;;;;10.90;2.83;;;;;;;24.79;91.26;101455.94;5095960;28;20103;-69
2023/08/14 09:23:41;;;;;;;10.20;2.78;;;;;;;24.99;90.13;101456.97;5076269;28;20021;-69
2023/08/14 09:26:08;;;;;;;8.07;2.50;;;;;;;25.01;88.50;101452.03;5093133;28;20058;-70
2023/08/14 09:28:34;;;;;;;9.35;2.35;;;;;;;25.17;87.58;101461.94;5075965;28;20036;-72
2023/08/14 09:31:08;;;;;;;7.63;2.00;;;;;;;25.31;85.51;101464.91;5092234;28;20138;-72
2023/08/14 09:33:35;;;;;;;6.13;1.70;;;;;;;25.52;84.03;101460.09;5092285;28;20032;-73
2023/08/14 09:36:01;;;;;;;9.18;2.28;;;;;;;25.67;82.90;101462.78;5096447;28;20032;-74
2023/08/14 09:38:27;;;;;;;6.47;1.80;;;;;;;25.63;82.07;101449.84;5097746;28;20049;-70
2023/08/14 09:40:59;;;;;;;7.45;2.40;;;;;;;25.67;82.26;101454.50;5099850;28;20027;-73
2023/08/14 09:43:26;;;;;;;10.45;2.97;;;;;;;25.64;83.24;101457.03;5098585;28;20167;-73
2023/08/14 09:45:53;;;;;;;9.05;2.53;;;;;;;25.69;83.22;101445.94;5095870;28;20044;-69
2023/08/14 09:48:19;;;;;;;7.30;2.20;;;;;;;25.66;82.63;101457.53;5093617;28;20526;-69
2023/08/14 09:50:51;;;;;;;10.30;2.75;;;;;;;25.63;82.14;101453.44;5098474;28;20048;-71
2023/08/14 09:53:17;;;;;;;10.32;2.90;;;;;;;25.61;81.04;101452.91;5099632;28;20090;-71
2023/08/14 09:55:43;;;;;;;9.45;2.40;;;;;;;25.59;80.97;101429.47;5097983;28;20028;-72
2023/08/14 09:58:09;;;;;;;11.27;2.60;;;;;;;25.76;80.34;101455.56;5081204;28;20398;-69
2023/08/14 10:00:37;;;;;;;7.28;2.38;;;;;;;25.96;79.77;101448.28;5099076;28;20028;-81
2023/08/14 10:03:05;;;;;;;6.88;1.92;;;;;;;25.97;78.10;101452.69;5099728;28;20035;-70
2023/08/14 10:05:33;;;;;;;6.07;1.90;;;;;;;26.17;75.90;101452.53;5097556;28;20020;-70
2023/08/14 10:08:00;;;;;;;6.85;2.38;;;;;;;26.16;75.70;101447.31;5100175;28;20032;-79
2023/08/14 10:10:30;;;;;;;8.65;2.72;;;;;;;25.98;75.92;101443.31;5102321;28;20020;-79
2023/08/14 10:13:05;;;;;;;14.40;3.13;;;;;;;26.12;76.29;101448.97;5104178;28;20024;-76
2023/08/14 10:15:52;;;;;;;10.77;3.40;;;;;;;26.13;76.13;101445.13;5100570;28;20216;-84
2023/08/14 10:18:22;;;;;;;10.50;3.28;;;;;;;26.24;78.24;101446.69;5100751;28;20022;-75
2023/08/14 10:20:49;;;;;;;9.50;3.13;;;;;;;26.30;76.52;101439.19;5099469;28;20047;-76
2023/08/14 10:23:15;;;;;;;12.32;3.50;;;;;;;26.25;76.85;101459.34;5100919;28;20015;-76
2023/08/14 10:25:42;;;;;;;12.57;4.90;;;;;;;26.02;77.68;101452.66;5098143;28;20058;-70
2023/08/14 10:28:09;;;;;;;10.32;3.15;;;;;;;25.82;78.31;101439.00;5099277;28;20036;-71
2023/08/14 10:30:36;;;;;;;9.77;3.45;;;;;;;25.78;78.83;101449.75;5097636;28;20118;-70
2023/08/14 10:33:02;;;;;;;8.85;3.47;;;;;;;25.88;78.82;101451.66;5097873;28;20486;-70
2023/08/14 10:35:28;;;;;;;7.75;2.53;;;;;;;25.94;78.08;101448.56;5097205;28;20020;-70
2023/08/14 10:37:54;;;;;;;7.18;2.90;;;;;;;26.01;78.10;101457.34;5098657;28;20035;-71
2023/08/14 10:40:22;;;;;;;9.70;2.70;;;;;;;25.90;77.65;101463.22;5096810;28;20043;-70
2023/08/14 10:42:51;;;;;;;8.95;2.60;;;;;;;25.83;78.13;101465.47;5097306;28;20040;-70
2023/08/14 10:45:18;;;;;;;7.97;2.42;;;;;;;25.82;78.25;101461.88;5097020;28;20044;-70
2023/08/14 10:47:44;;;;;;;7.57;3.00;;;;;;;25.71;78.31;101461.09;5097070;28;20087;-70
2023/08/14 10:50:39;;;;;;;8.25;2.70;;;;;;;25.81;78.20;101464.94;5098725;28;20048;-71
2023/08/14 10:53:05;;;;;;;10.38;3.70;;;;;;;25.75;78.41;101461.34;5075860;28;20043;-70
2023/08/14 10:55:40;;;;;;;10.20;2.95;;;;;;;25.78;78.58;101467.13;5097651;28;20024;-79
2023/08/14 10:58:28;;;;;;;11.10;2.70;;;;;;;25.84;78.15;101465.19;5100935;28;20428;-82
2023/08/14 11:00:54;;;;;;;9.88;3.08;;;;;;;25.89;77.77;101465.13;5098369;28;20734;-77
2023/08/14 11:03:19;;;;;;;10.60;2.90;;;;;;;26.19;76.92;101463.25;5099116;28;20024;-84
2023/08/14 11:05:45;;;;;;;8.30;2.47;;;;;;;26.24;75.98;101464.06;5098509;28;20088;-76
2023/08/14 11:08:12;;;;;;;9.35;2.95;;;;;;;26.34;75.59;101463.16;5097186;28;20713;-83
2023/08/14 11:10:38;;;;;;;7.18;2.67;;;;;;;26.37;74.88;101468.09;5093654;28;20020;-69